PBD441 UUWW-UWKE
Flight info
| Callsign | PBD441 |
|---|---|
| Flight time | 1h 29m |
| Altitude | 35000 |
| Route | KOGOM3W KOGOM L94 EKPIR M864 INKEB L94 NAMER T765 GEMKI GEMKI2L |
| Aircraft | B738/M-SDE2E3FGHIRWXY/LB1 |
Departure
| Time | 2026-04-14 13:23 |
|---|---|
| Airport | Vnukovo International Airport (UUWW) |
Arrival
| Time | 2026-04-14 14:52 |
|---|---|
| Airport | Begishevo Airport (UWKE) |
| Time | Latitude | Longitude | Altitude | Speed | Heading |
|---|---|---|---|---|---|
| 2026-04-14 12:36 | 55.60288 | 37.27734 | 694 ft | 0 kts | 95° |
| 2026-04-14 13:12 | 55.60288 | 37.27749 | 694 ft | 3 kts | 95° |
| 2026-04-14 13:12 | 55.60277 | 37.27795 | 688 ft | 5 kts | 118° |
| 2026-04-14 13:13 | 55.60245 | 37.27830 | 691 ft | 6 kts | 171° |
| 2026-04-14 13:13 | 55.60205 | 37.27837 | 692 ft | 6 kts | 175° |
| 2026-04-14 13:13 | 55.60166 | 37.27850 | 692 ft | 6 kts | 167° |
| 2026-04-14 13:13 | 55.60127 | 37.27854 | 692 ft | 6 kts | 187° |
| 2026-04-14 13:14 | 55.60091 | 37.27828 | 691 ft | 6 kts | 208° |
| 2026-04-14 13:14 | 55.60060 | 37.27790 | 689 ft | 5 kts | 218° |
| 2026-04-14 13:14 | 55.60031 | 37.27747 | 689 ft | 5 kts | 214° |
| 2026-04-14 13:14 | 55.60000 | 37.27711 | 692 ft | 5 kts | 222° |
| 2026-04-14 13:15 | 55.59974 | 37.27665 | 690 ft | 5 kts | 227° |
| 2026-04-14 13:15 | 55.59953 | 37.27613 | 694 ft | 5 kts | 238° |
| 2026-04-14 13:15 | 55.59933 | 37.27560 | 691 ft | 5 kts | 231° |
| 2026-04-14 13:15 | 55.59909 | 37.27514 | 688 ft | 5 kts | 225° |
| 2026-04-14 13:16 | 55.59885 | 37.27471 | 689 ft | 5 kts | 226° |
| 2026-04-14 13:16 | 55.59861 | 37.27426 | 692 ft | 5 kts | 227° |
| 2026-04-14 13:16 | 55.59837 | 37.27380 | 689 ft | 5 kts | 227° |
| 2026-04-14 13:16 | 55.59809 | 37.27328 | 687 ft | 6 kts | 227° |
| 2026-04-14 13:17 | 55.59779 | 37.27270 | 692 ft | 7 kts | 227° |
| 2026-04-14 13:17 | 55.59745 | 37.27208 | 694 ft | 7 kts | 225° |
| 2026-04-14 13:17 | 55.59709 | 37.27143 | 687 ft | 8 kts | 226° |
| 2026-04-14 13:17 | 55.59671 | 37.27073 | 690 ft | 8 kts | 226° |
| 2026-04-14 13:18 | 55.59630 | 37.26999 | 692 ft | 9 kts | 226° |
| 2026-04-14 13:18 | 55.59587 | 37.26922 | 689 ft | 9 kts | 225° |
| 2026-04-14 13:18 | 55.59536 | 37.26881 | 691 ft | 9 kts | 171° |
| 2026-04-14 13:18 | 55.59476 | 37.26891 | 686 ft | 9 kts | 199° |
| 2026-04-14 13:19 | 55.59429 | 37.26819 | 692 ft | 9 kts | 224° |
| 2026-04-14 13:19 | 55.59381 | 37.26746 | 692 ft | 9 kts | 222° |
| 2026-04-14 13:19 | 55.59331 | 37.26659 | 689 ft | 11 kts | 227° |
| 2026-04-14 13:19 | 55.59273 | 37.26555 | 688 ft | 12 kts | 222° |
| 2026-04-14 13:20 | 55.59198 | 37.26498 | 687 ft | 12 kts | 197° |
| 2026-04-14 13:20 | 55.59122 | 37.26447 | 689 ft | 12 kts | 202° |
| 2026-04-14 13:20 | 55.59050 | 37.26390 | 693 ft | 11 kts | 206° |
| 2026-04-14 13:20 | 55.58980 | 37.26332 | 694 ft | 11 kts | 203° |
| 2026-04-14 13:21 | 55.58908 | 37.26290 | 694 ft | 11 kts | 199° |
| 2026-04-14 13:21 | 55.58845 | 37.26229 | 687 ft | 11 kts | 227° |
| 2026-04-14 13:21 | 55.58810 | 37.26116 | 688 ft | 11 kts | 248° |
| 2026-04-14 13:21 | 55.58787 | 37.25991 | 688 ft | 11 kts | 261° |
| 2026-04-14 13:22 | 55.58840 | 37.25918 | 688 ft | 11 kts | 5° |
| 2026-04-14 13:22 | 55.58938 | 37.25980 | 691 ft | 32 kts | 22° |
| 2026-04-14 13:22 | 55.59364 | 37.26308 | 693 ft | 99 kts | 24° |
| 2026-04-14 13:22 | 55.60177 | 37.26917 | 694 ft | 153 kts | 24° |
| 2026-04-14 13:23 | 55.61260 | 37.27722 | 1011 ft | 178 kts | 21° |
| 2026-04-14 13:23 | 55.62422 | 37.28541 | 1847 ft | 174 kts | 24° |
| 2026-04-14 13:23 | 55.63453 | 37.29331 | 2979 ft | 160 kts | 27° |
| 2026-04-14 13:23 | 55.64543 | 37.30168 | 3359 ft | 186 kts | 28° |
| 2026-04-14 13:24 | 55.65751 | 37.31196 | 3942 ft | 194 kts | 40° |
| 2026-04-14 13:24 | 55.66895 | 37.35364 | 5331 ft | 202 kts | 92° |
| 2026-04-14 13:24 | 55.66515 | 37.37798 | 5920 ft | 210 kts | 108° |
| 2026-04-14 13:25 | 55.65952 | 37.40177 | 5938 ft | 209 kts | 110° |
| 2026-04-14 13:25 | 55.65099 | 37.42277 | 5973 ft | 219 kts | 134° |
| 2026-04-14 13:26 | 55.60648 | 37.46456 | 5984 ft | 247 kts | 148° |
| 2026-04-14 13:26 | 55.59089 | 37.47664 | 5968 ft | 252 kts | 158° |
| 2026-04-14 13:26 | 55.57302 | 37.47711 | 5984 ft | 267 kts | 188° |
| 2026-04-14 13:26 | 55.55613 | 37.46201 | 5978 ft | 279 kts | 214° |
| 2026-04-14 13:27 | 55.53996 | 37.44405 | 5953 ft | 270 kts | 189° |
| 2026-04-14 13:27 | 55.52229 | 37.44463 | 5983 ft | 248 kts | 149° |
| 2026-04-14 13:27 | 55.51060 | 37.46447 | 6008 ft | 233 kts | 109° |
| 2026-04-14 13:27 | 55.50868 | 37.49294 | 6272 ft | 243 kts | 89° |
| 2026-04-14 13:28 | 55.50690 | 37.52245 | 7200 ft | 241 kts | 97° |
| 2026-04-14 13:28 | 55.50641 | 37.55239 | 7912 ft | 250 kts | 82° |
| 2026-04-14 13:28 | 55.51168 | 37.58170 | 8804 ft | 254 kts | 71° |
| 2026-04-14 13:28 | 55.51852 | 37.61086 | 9546 ft | 260 kts | 72° |
| 2026-04-14 13:29 | 55.52517 | 37.64072 | 10275 ft | 263 kts | 73° |
| 2026-04-14 13:29 | 55.53152 | 37.67121 | 11011 ft | 265 kts | 75° |
| 2026-04-14 13:29 | 55.53759 | 37.70209 | 11758 ft | 268 kts | 75° |
| 2026-04-14 13:29 | 55.54348 | 37.73339 | 12495 ft | 271 kts | 76° |
| 2026-04-14 13:30 | 55.54930 | 37.76527 | 13029 ft | 274 kts | 76° |
| 2026-04-14 13:30 | 55.55496 | 37.79697 | 13143 ft | 275 kts | 76° |
| 2026-04-14 13:30 | 55.56069 | 37.82968 | 13158 ft | 274 kts | 77° |
| 2026-04-14 13:30 | 55.56441 | 37.85108 | 13162 ft | 275 kts | 77° |
| 2026-04-14 13:31 | 55.57181 | 37.89384 | 13165 ft | 276 kts | 77° |
| 2026-04-14 13:31 | 55.57740 | 37.92638 | 13166 ft | 276 kts | 77° |
| 2026-04-14 13:31 | 55.58298 | 37.95889 | 13165 ft | 277 kts | 77° |
| 2026-04-14 13:31 | 55.58669 | 37.98057 | 13158 ft | 277 kts | 77° |
| 2026-04-14 13:32 | 55.59229 | 38.01333 | 13156 ft | 278 kts | 77° |
| 2026-04-14 13:32 | 55.59785 | 38.04595 | 13169 ft | 277 kts | 77° |
| 2026-04-14 13:32 | 55.60339 | 38.07852 | 13159 ft | 276 kts | 77° |
| 2026-04-14 13:32 | 55.60892 | 38.11115 | 13147 ft | 276 kts | 77° |
| 2026-04-14 13:33 | 55.61309 | 38.14400 | 13142 ft | 272 kts | 91° |
| 2026-04-14 13:33 | 55.61120 | 38.17738 | 13235 ft | 279 kts | 102° |
| 2026-04-14 13:33 | 55.60687 | 38.21195 | 13634 ft | 292 kts | 104° |
| 2026-04-14 13:33 | 55.60209 | 38.24719 | 14121 ft | 297 kts | 104° |
| 2026-04-14 13:34 | 55.59265 | 38.31823 | 14155 ft | 297 kts | 103° |
| 2026-04-14 13:34 | 55.58804 | 38.35384 | 14162 ft | 297 kts | 103° |
| 2026-04-14 13:34 | 55.58349 | 38.38909 | 14160 ft | 297 kts | 103° |
| 2026-04-14 13:35 | 55.57927 | 38.42476 | 14147 ft | 298 kts | 97° |
| 2026-04-14 13:35 | 55.58105 | 38.46134 | 14188 ft | 301 kts | 79° |
| 2026-04-14 13:35 | 55.58918 | 38.49620 | 14565 ft | 313 kts | 65° |
| 2026-04-14 13:35 | 55.60031 | 38.52943 | 15285 ft | 314 kts | 64° |
| 2026-04-14 13:36 | 55.61162 | 38.56286 | 15880 ft | 318 kts | 64° |
| 2026-04-14 13:36 | 55.62284 | 38.59630 | 16143 ft | 315 kts | 64° |
| 2026-04-14 13:36 | 55.63407 | 38.63009 | 16167 ft | 321 kts | 64° |
| 2026-04-14 13:36 | 55.64533 | 38.66410 | 16696 ft | 325 kts | 64° |
| 2026-04-14 13:37 | 55.65683 | 38.69890 | 17099 ft | 328 kts | 65° |
| 2026-04-14 13:37 | 55.66835 | 38.73379 | 17110 ft | 325 kts | 65° |
| 2026-04-14 13:37 | 55.67977 | 38.76844 | 17144 ft | 326 kts | 65° |
| 2026-04-14 13:37 | 55.69110 | 38.80289 | 17143 ft | 327 kts | 65° |
| 2026-04-14 13:38 | 55.70255 | 38.83772 | 17151 ft | 327 kts | 65° |
| 2026-04-14 13:38 | 55.71400 | 38.87261 | 17148 ft | 328 kts | 65° |
| 2026-04-14 13:38 | 55.72544 | 38.90755 | 17147 ft | 328 kts | 65° |
| 2026-04-14 13:38 | 55.73764 | 38.94197 | 17143 ft | 333 kts | 58° |
| 2026-04-14 13:39 | 55.75331 | 38.97336 | 17502 ft | 343 kts | 52° |
| 2026-04-14 13:39 | 55.77005 | 39.00351 | 18292 ft | 343 kts | 51° |
| 2026-04-14 13:39 | 55.78690 | 39.03379 | 18898 ft | 345 kts | 52° |
| 2026-04-14 13:39 | 55.80346 | 39.06423 | 19444 ft | 348 kts | 52° |
| 2026-04-14 13:40 | 55.82040 | 39.09599 | 20006 ft | 351 kts | 53° |
| 2026-04-14 13:40 | 55.83699 | 39.12738 | 20516 ft | 355 kts | 53° |
| 2026-04-14 13:40 | 55.85295 | 39.16105 | 20919 ft | 356 kts | 63° |
| 2026-04-14 13:40 | 55.86486 | 39.20046 | 21022 ft | 368 kts | 69° |
| 2026-04-14 13:41 | 55.87615 | 39.24252 | 21137 ft | 382 kts | 70° |
| 2026-04-14 13:41 | 55.88773 | 39.28611 | 21250 ft | 396 kts | 69° |
| 2026-04-14 13:41 | 55.89986 | 39.33116 | 21344 ft | 409 kts | 69° |
| 2026-04-14 13:41 | 55.91252 | 39.37745 | 21452 ft | 421 kts | 69° |
| 2026-04-14 13:42 | 55.92557 | 39.42458 | 21760 ft | 426 kts | 68° |
| 2026-04-14 13:42 | 55.93878 | 39.47206 | 22239 ft | 428 kts | 68° |
| 2026-04-14 13:42 | 55.95189 | 39.51918 | 22700 ft | 429 kts | 68° |
| 2026-04-14 13:42 | 55.96518 | 39.56710 | 23110 ft | 432 kts | 69° |
| 2026-04-14 13:43 | 55.97852 | 39.61537 | 23511 ft | 435 kts | 69° |
| 2026-04-14 13:43 | 55.99200 | 39.66433 | 23705 ft | 441 kts | 68° |
| 2026-04-14 13:43 | 56.00603 | 39.71360 | 23966 ft | 446 kts | 66° |
| 2026-04-14 13:43 | 56.01918 | 39.76356 | 24359 ft | 442 kts | 74° |
| 2026-04-14 13:44 | 56.02752 | 39.81598 | 24734 ft | 437 kts | 83° |
| 2026-04-14 13:44 | 56.03119 | 39.86970 | 25061 ft | 434 kts | 91° |
| 2026-04-14 13:44 | 56.03173 | 39.92383 | 25366 ft | 436 kts | 92° |
| 2026-04-14 13:44 | 56.03214 | 39.97748 | 25659 ft | 438 kts | 92° |
| 2026-04-14 13:45 | 56.03261 | 40.03200 | 25953 ft | 440 kts | 92° |
| 2026-04-14 13:45 | 56.03317 | 40.08684 | 26234 ft | 442 kts | 92° |
| 2026-04-14 13:45 | 56.03380 | 40.14185 | 26512 ft | 443 kts | 92° |
| 2026-04-14 13:45 | 56.03446 | 40.19706 | 26793 ft | 445 kts | 92° |
| 2026-04-14 13:46 | 56.03512 | 40.25232 | 27179 ft | 444 kts | 92° |
| 2026-04-14 13:46 | 56.03578 | 40.30738 | 27633 ft | 441 kts | 92° |
| 2026-04-14 13:46 | 56.03640 | 40.36205 | 28065 ft | 440 kts | 92° |
| 2026-04-14 13:46 | 56.03698 | 40.41691 | 28302 ft | 443 kts | 92° |
| 2026-04-14 13:47 | 56.03754 | 40.47236 | 28551 ft | 445 kts | 92° |
| 2026-04-14 13:47 | 56.03808 | 40.52749 | 28975 ft | 443 kts | 92° |
| 2026-04-14 13:47 | 56.03859 | 40.58237 | 29490 ft | 439 kts | 92° |
| 2026-04-14 13:47 | 56.03909 | 40.63686 | 29947 ft | 437 kts | 92° |
| 2026-04-14 13:48 | 56.03955 | 40.69119 | 30287 ft | 437 kts | 92° |
| 2026-04-14 13:48 | 56.03998 | 40.74536 | 30557 ft | 437 kts | 92° |
| 2026-04-14 13:48 | 56.04036 | 40.79903 | 30867 ft | 436 kts | 92° |
| 2026-04-14 13:48 | 56.04072 | 40.85382 | 31198 ft | 435 kts | 92° |
| 2026-04-14 13:49 | 56.04104 | 40.90735 | 31498 ft | 435 kts | 92° |
| 2026-04-14 13:49 | 56.04134 | 40.96203 | 31804 ft | 434 kts | 92° |
| 2026-04-14 13:49 | 56.04162 | 41.01596 | 32129 ft | 433 kts | 92° |
| 2026-04-14 13:49 | 56.04188 | 41.06963 | 32446 ft | 432 kts | 92° |
| 2026-04-14 13:50 | 56.04211 | 41.12345 | 32728 ft | 431 kts | 92° |
| 2026-04-14 13:50 | 56.04232 | 41.17699 | 33018 ft | 431 kts | 92° |
| 2026-04-14 13:50 | 56.04251 | 41.23059 | 33281 ft | 430 kts | 92° |
| 2026-04-14 13:50 | 56.04268 | 41.28433 | 33467 ft | 432 kts | 92° |
| 2026-04-14 13:51 | 56.04282 | 41.33808 | 33720 ft | 432 kts | 92° |
| 2026-04-14 13:51 | 56.04294 | 41.39171 | 34050 ft | 430 kts | 92° |
| 2026-04-14 13:51 | 56.04304 | 41.44530 | 34317 ft | 429 kts | 92° |
| 2026-04-14 13:51 | 56.04311 | 41.49890 | 34485 ft | 431 kts | 92° |
| 2026-04-14 13:52 | 56.04326 | 41.55205 | 34628 ft | 432 kts | 92° |
| 2026-04-14 13:52 | 56.04335 | 41.60601 | 34767 ft | 434 kts | 91° |
| 2026-04-14 13:52 | 56.04336 | 41.66001 | 34939 ft | 435 kts | 92° |
| 2026-04-14 13:52 | 56.04333 | 41.71399 | 35150 ft | 434 kts | 92° |
| 2026-04-14 13:53 | 56.04328 | 41.76801 | 35336 ft | 434 kts | 92° |
| 2026-04-14 13:53 | 56.04320 | 41.82215 | 35488 ft | 435 kts | 92° |
| 2026-04-14 13:53 | 56.04310 | 41.87645 | 35657 ft | 436 kts | 92° |
| 2026-04-14 13:53 | 56.04298 | 41.93069 | 35854 ft | 436 kts | 92° |
| 2026-04-14 13:54 | 56.04284 | 41.98491 | 36014 ft | 436 kts | 92° |
| 2026-04-14 13:54 | 56.04267 | 42.03923 | 36158 ft | 437 kts | 92° |
| 2026-04-14 13:54 | 56.04248 | 42.09362 | 36277 ft | 438 kts | 92° |
| 2026-04-14 13:55 | 56.04202 | 42.20255 | 36526 ft | 441 kts | 92° |
| 2026-04-14 13:55 | 56.04176 | 42.25735 | 36736 ft | 440 kts | 92° |
| 2026-04-14 13:55 | 56.04147 | 42.31222 | 36892 ft | 440 kts | 92° |
| 2026-04-14 13:55 | 56.04115 | 42.36692 | 37061 ft | 439 kts | 92° |
| 2026-04-14 13:56 | 56.04081 | 42.42165 | 37121 ft | 441 kts | 92° |
| 2026-04-14 13:56 | 56.04008 | 42.53162 | 37121 ft | 443 kts | 92° |
| 2026-04-14 13:57 | 56.03900 | 42.64173 | 37132 ft | 442 kts | 93° |
| 2026-04-14 13:57 | 56.03768 | 42.75085 | 37136 ft | 441 kts | 93° |
| 2026-04-14 13:58 | 56.03625 | 42.86055 | 37132 ft | 441 kts | 93° |
| 2026-04-14 13:58 | 56.03472 | 42.97042 | 37122 ft | 440 kts | 93° |
| 2026-04-14 13:59 | 56.03315 | 43.07985 | 37139 ft | 440 kts | 93° |
| 2026-04-14 13:59 | 56.03147 | 43.18864 | 37139 ft | 440 kts | 94° |
| 2026-04-14 14:00 | 56.02972 | 43.29809 | 37136 ft | 441 kts | 94° |
| 2026-04-14 14:00 | 56.03225 | 43.40789 | 37154 ft | 444 kts | 85° |
| 2026-04-14 14:01 | 56.04035 | 43.51742 | 37147 ft | 445 kts | 84° |
| 2026-04-14 14:01 | 56.04849 | 43.62724 | 37161 ft | 445 kts | 85° |
| 2026-04-14 14:02 | 56.05608 | 43.73747 | 37135 ft | 446 kts | 85° |
| 2026-04-14 14:02 | 56.06335 | 43.84798 | 37157 ft | 447 kts | 85° |
| 2026-04-14 14:03 | 56.07040 | 43.95797 | 37148 ft | 448 kts | 85° |
| 2026-04-14 14:03 | 56.07743 | 44.06891 | 37145 ft | 449 kts | 85° |
| 2026-04-14 14:04 | 56.08440 | 44.18011 | 37150 ft | 450 kts | 85° |
| 2026-04-14 14:04 | 56.09127 | 44.29162 | 37147 ft | 450 kts | 85° |
| 2026-04-14 14:05 | 56.09807 | 44.40338 | 37141 ft | 451 kts | 85° |
| 2026-04-14 14:05 | 56.10473 | 44.51444 | 37147 ft | 451 kts | 87° |
| 2026-04-14 14:06 | 56.11131 | 44.62620 | 37148 ft | 451 kts | 86° |
| 2026-04-14 14:06 | 56.11279 | 44.73829 | 37175 ft | 448 kts | 94° |
| 2026-04-14 14:07 | 56.10959 | 44.85013 | 37153 ft | 449 kts | 95° |
| 2026-04-14 14:07 | 56.10696 | 44.96134 | 37148 ft | 450 kts | 94° |
| 2026-04-14 14:08 | 56.10463 | 45.07347 | 37147 ft | 450 kts | 94° |
| 2026-04-14 14:08 | 56.10201 | 45.18563 | 37147 ft | 450 kts | 95° |
| 2026-04-14 14:09 | 56.09929 | 45.29775 | 37148 ft | 450 kts | 94° |
| 2026-04-14 14:09 | 56.09647 | 45.40974 | 37155 ft | 450 kts | 95° |
| 2026-04-14 14:10 | 56.09349 | 45.52200 | 37155 ft | 450 kts | 95° |
| 2026-04-14 14:10 | 56.09048 | 45.63344 | 37144 ft | 450 kts | 95° |
| 2026-04-14 14:11 | 56.08735 | 45.74537 | 37144 ft | 450 kts | 95° |
| 2026-04-14 14:11 | 56.08413 | 45.85751 | 37147 ft | 450 kts | 95° |
| 2026-04-14 14:12 | 56.08079 | 45.96942 | 37137 ft | 449 kts | 96° |
| 2026-04-14 14:12 | 56.07734 | 46.08101 | 37127 ft | 449 kts | 96° |
| 2026-04-14 14:13 | 56.07386 | 46.19227 | 37136 ft | 449 kts | 95° |
| 2026-04-14 14:13 | 56.07027 | 46.30406 | 37145 ft | 450 kts | 95° |
| 2026-04-14 14:14 | 56.06652 | 46.41604 | 37159 ft | 451 kts | 96° |
| 2026-04-14 14:14 | 56.06282 | 46.52840 | 37149 ft | 452 kts | 94° |
| 2026-04-14 14:15 | 56.06310 | 46.64126 | 37143 ft | 454 kts | 90° |
| 2026-04-14 14:15 | 56.06497 | 46.75376 | 37151 ft | 455 kts | 91° |
| 2026-04-14 14:16 | 56.06644 | 46.86698 | 37150 ft | 455 kts | 91° |
| 2026-04-14 14:16 | 56.06727 | 46.96190 | 37152 ft | 455 kts | 91° |
| 2026-04-14 14:17 | 56.06849 | 47.13119 | 37158 ft | 456 kts | 90° |
| 2026-04-14 14:17 | 56.06917 | 47.24490 | 37160 ft | 457 kts | 92° |
| 2026-04-14 14:18 | 56.06975 | 47.35867 | 37169 ft | 457 kts | 92° |
| 2026-04-14 14:18 | 56.07027 | 47.47257 | 37167 ft | 458 kts | 90° |
| 2026-04-14 14:19 | 56.07067 | 47.58657 | 37163 ft | 458 kts | 91° |
| 2026-04-14 14:19 | 56.07087 | 47.70071 | 37150 ft | 458 kts | 91° |
| 2026-04-14 14:20 | 56.07100 | 47.81485 | 37159 ft | 459 kts | 91° |
| 2026-04-14 14:20 | 56.07107 | 47.92846 | 37149 ft | 460 kts | 92° |
| 2026-04-14 14:21 | 56.07105 | 48.04319 | 37172 ft | 460 kts | 90° |
| 2026-04-14 14:21 | 56.07091 | 48.15787 | 37163 ft | 461 kts | 92° |
| 2026-04-14 14:22 | 56.07067 | 48.27273 | 37159 ft | 461 kts | 91° |
| 2026-04-14 14:22 | 56.07032 | 48.38760 | 37168 ft | 461 kts | 93° |
| 2026-04-14 14:23 | 56.06986 | 48.50259 | 37152 ft | 462 kts | 92° |
| 2026-04-14 14:23 | 56.06915 | 48.61772 | 37170 ft | 463 kts | 92° |
| 2026-04-14 14:24 | 56.06840 | 48.73239 | 37181 ft | 463 kts | 92° |
| 2026-04-14 14:24 | 56.06766 | 48.84808 | 37182 ft | 464 kts | 91° |
| 2026-04-14 14:25 | 56.06679 | 48.96390 | 37178 ft | 464 kts | 93° |
| 2026-04-14 14:25 | 56.06577 | 49.07984 | 37175 ft | 465 kts | 92° |
| 2026-04-14 14:26 | 56.06465 | 49.19489 | 37169 ft | 465 kts | 92° |
| 2026-04-14 14:26 | 56.06343 | 49.31078 | 37174 ft | 466 kts | 91° |
| 2026-04-14 14:27 | 56.06211 | 49.42690 | 37180 ft | 466 kts | 92° |
| 2026-04-14 14:27 | 56.06066 | 49.54325 | 37182 ft | 467 kts | 92° |
| 2026-04-14 14:28 | 56.05989 | 49.60165 | 36798 ft | 474 kts | 92° |
| 2026-04-14 14:28 | 56.05909 | 49.66062 | 36333 ft | 471 kts | 92° |
| 2026-04-14 14:28 | 56.05829 | 49.71894 | 35672 ft | 470 kts | 92° |
| 2026-04-14 14:28 | 56.05744 | 49.77763 | 35021 ft | 471 kts | 93° |
| 2026-04-14 14:29 | 56.05656 | 49.83636 | 34345 ft | 472 kts | 93° |
| 2026-04-14 14:29 | 56.05567 | 49.89520 | 33545 ft | 474 kts | 93° |
| 2026-04-14 14:29 | 56.05478 | 49.95342 | 32831 ft | 473 kts | 92° |
| 2026-04-14 14:29 | 56.05386 | 50.01221 | 32125 ft | 473 kts | 93° |
| 2026-04-14 14:30 | 56.05291 | 50.07120 | 31396 ft | 473 kts | 92° |
| 2026-04-14 14:30 | 56.05194 | 50.13005 | 30668 ft | 473 kts | 93° |
| 2026-04-14 14:30 | 56.05094 | 50.18911 | 29858 ft | 474 kts | 93° |
| 2026-04-14 14:30 | 56.04990 | 50.24823 | 28978 ft | 474 kts | 92° |
| 2026-04-14 14:31 | 56.04885 | 50.30639 | 28139 ft | 473 kts | 92° |
| 2026-04-14 14:31 | 56.04776 | 50.36520 | 27266 ft | 473 kts | 93° |
| 2026-04-14 14:31 | 56.04664 | 50.42410 | 26595 ft | 469 kts | 92° |
| 2026-04-14 14:31 | 56.04551 | 50.48214 | 25942 ft | 464 kts | 92° |
| 2026-04-14 14:32 | 56.04437 | 50.53961 | 25317 ft | 459 kts | 92° |
| 2026-04-14 14:32 | 56.04321 | 50.59643 | 24698 ft | 455 kts | 92° |
| 2026-04-14 14:32 | 56.04204 | 50.65277 | 24086 ft | 450 kts | 91° |
| 2026-04-14 14:32 | 56.04088 | 50.70847 | 23424 ft | 446 kts | 91° |
| 2026-04-14 14:33 | 56.03971 | 50.76362 | 22730 ft | 442 kts | 91° |
| 2026-04-14 14:33 | 56.03850 | 50.81815 | 22115 ft | 436 kts | 91° |
| 2026-04-14 14:33 | 56.03748 | 50.87205 | 21488 ft | 431 kts | 90° |
| 2026-04-14 14:33 | 56.03744 | 50.92539 | 20884 ft | 425 kts | 89° |
| 2026-04-14 14:34 | 56.03835 | 51.03007 | 19696 ft | 416 kts | 88° |
| 2026-04-14 14:34 | 56.03874 | 51.08161 | 19112 ft | 411 kts | 88° |
| 2026-04-14 14:34 | 56.03902 | 51.13196 | 18543 ft | 407 kts | 89° |
| 2026-04-14 14:35 | 56.03922 | 51.18232 | 17898 ft | 403 kts | 89° |
| 2026-04-14 14:35 | 56.03934 | 51.23216 | 17286 ft | 394 kts | 89° |
| 2026-04-14 14:35 | 56.03942 | 51.28018 | 16725 ft | 379 kts | 89° |
| 2026-04-14 14:35 | 56.03947 | 51.32654 | 16192 ft | 367 kts | 89° |
| 2026-04-14 14:36 | 56.03951 | 51.37178 | 15640 ft | 359 kts | 89° |
| 2026-04-14 14:36 | 56.03954 | 51.41577 | 15122 ft | 351 kts | 89° |
| 2026-04-14 14:36 | 56.03955 | 51.45966 | 14615 ft | 357 kts | 89° |
| 2026-04-14 14:36 | 56.03956 | 51.50550 | 14038 ft | 379 kts | 89° |
| 2026-04-14 14:37 | 56.03953 | 51.55250 | 13321 ft | 379 kts | 88° |
| 2026-04-14 14:37 | 56.03947 | 51.59873 | 12761 ft | 364 kts | 88° |
| 2026-04-14 14:37 | 56.03941 | 51.64322 | 12281 ft | 351 kts | 89° |
| 2026-04-14 14:37 | 56.03934 | 51.68627 | 11817 ft | 342 kts | 88° |
| 2026-04-14 14:38 | 56.03750 | 51.72834 | 11390 ft | 338 kts | 104° |
| 2026-04-14 14:38 | 56.02717 | 51.76582 | 11301 ft | 343 kts | 127° |
| 2026-04-14 14:38 | 56.00924 | 51.79537 | 11125 ft | 358 kts | 148° |
| 2026-04-14 14:38 | 55.98645 | 51.81085 | 10918 ft | 343 kts | 170° |
| 2026-04-14 14:39 | 55.96335 | 51.81105 | 10765 ft | 323 kts | 186° |
| 2026-04-14 14:39 | 55.94162 | 51.80610 | 10622 ft | 307 kts | 188° |
| 2026-04-14 14:39 | 55.92092 | 51.80114 | 10486 ft | 292 kts | 187° |
| 2026-04-14 14:39 | 55.90153 | 51.79675 | 10360 ft | 280 kts | 187° |
| 2026-04-14 14:40 | 55.88247 | 51.79261 | 10248 ft | 272 kts | 187° |
| 2026-04-14 14:40 | 55.86383 | 51.78862 | 10154 ft | 270 kts | 187° |
| 2026-04-14 14:40 | 55.84475 | 51.78459 | 9921 ft | 282 kts | 187° |
| 2026-04-14 14:40 | 55.82516 | 51.78045 | 9637 ft | 284 kts | 185° |
| 2026-04-14 14:41 | 55.80572 | 51.77632 | 9325 ft | 277 kts | 184° |
| 2026-04-14 14:41 | 55.78684 | 51.77236 | 9051 ft | 269 kts | 184° |
| 2026-04-14 14:41 | 55.76851 | 51.76852 | 8809 ft | 260 kts | 184° |
| 2026-04-14 14:41 | 55.75070 | 51.76479 | 8559 ft | 257 kts | 185° |
| 2026-04-14 14:42 | 55.73295 | 51.76109 | 8322 ft | 257 kts | 185° |
| 2026-04-14 14:42 | 55.71489 | 51.75734 | 8088 ft | 266 kts | 185° |
| 2026-04-14 14:42 | 55.69628 | 51.75347 | 7815 ft | 270 kts | 185° |
| 2026-04-14 14:42 | 55.67780 | 51.74961 | 7529 ft | 264 kts | 185° |
| 2026-04-14 14:43 | 55.66005 | 51.74591 | 7270 ft | 256 kts | 185° |
| 2026-04-14 14:43 | 55.64262 | 51.74226 | 7014 ft | 249 kts | 185° |
| 2026-04-14 14:43 | 55.62562 | 51.73870 | 6767 ft | 243 kts | 185° |
| 2026-04-14 14:43 | 55.60902 | 51.73524 | 6524 ft | 237 kts | 185° |
| 2026-04-14 14:44 | 55.59285 | 51.73186 | 6272 ft | 230 kts | 184° |
| 2026-04-14 14:44 | 55.57719 | 51.72852 | 6037 ft | 223 kts | 185° |
| 2026-04-14 14:44 | 55.56192 | 51.72534 | 5806 ft | 220 kts | 184° |
| 2026-04-14 14:44 | 55.54692 | 51.72235 | 5622 ft | 218 kts | 184° |
| 2026-04-14 14:45 | 55.53195 | 51.71921 | 5354 ft | 213 kts | 184° |
| 2026-04-14 14:45 | 55.51758 | 51.71631 | 5133 ft | 203 kts | 181° |
| 2026-04-14 14:45 | 55.50381 | 51.71424 | 4958 ft | 195 kts | 170° |
| 2026-04-14 14:45 | 55.49209 | 51.72388 | 4856 ft | 186 kts | 131° |
| 2026-04-14 14:46 | 55.48262 | 51.74025 | 4816 ft | 195 kts | 135° |
| 2026-04-14 14:46 | 55.47277 | 51.75626 | 4728 ft | 187 kts | 134° |
| 2026-04-14 14:46 | 55.46349 | 51.77140 | 4573 ft | 183 kts | 134° |
| 2026-04-14 14:46 | 55.45425 | 51.78650 | 4431 ft | 177 kts | 132° |
| 2026-04-14 14:47 | 55.44530 | 51.80118 | 4328 ft | 176 kts | 132° |
| 2026-04-14 14:47 | 55.43651 | 51.81664 | 4133 ft | 179 kts | 121° |
| 2026-04-14 14:47 | 55.43382 | 51.83722 | 3957 ft | 175 kts | 79° |
| 2026-04-14 14:47 | 55.43917 | 51.85582 | 3761 ft | 170 kts | 50° |
| 2026-04-14 14:48 | 55.44703 | 51.87056 | 3585 ft | 159 kts | 51° |
| 2026-04-14 14:48 | 55.45430 | 51.88426 | 3398 ft | 147 kts | 51° |
| 2026-04-14 14:48 | 55.46144 | 51.89774 | 3315 ft | 162 kts | 51° |
| 2026-04-14 14:48 | 55.46924 | 51.91245 | 3318 ft | 162 kts | 50° |
| 2026-04-14 14:49 | 55.47665 | 51.92633 | 3176 ft | 148 kts | 51° |
| 2026-04-14 14:49 | 55.48359 | 51.93932 | 2820 ft | 147 kts | 51° |
| 2026-04-14 14:49 | 55.49045 | 51.95227 | 2527 ft | 141 kts | 51° |
| 2026-04-14 14:49 | 55.49701 | 51.96466 | 2233 ft | 136 kts | 50° |
| 2026-04-14 14:50 | 55.50328 | 51.97677 | 1892 ft | 133 kts | 50° |
| 2026-04-14 14:50 | 55.50968 | 51.98875 | 1455 ft | 136 kts | 49° |
| 2026-04-14 14:50 | 55.51682 | 52.00148 | 1280 ft | 162 kts | 45° |
| 2026-04-14 14:50 | 55.52477 | 52.01621 | 1261 ft | 164 kts | 52° |
| 2026-04-14 14:51 | 55.53204 | 52.03193 | 1022 ft | 167 kts | 43° |
| 2026-04-14 14:51 | 55.54016 | 52.04645 | 979 ft | 164 kts | 42° |
| 2026-04-14 14:51 | 55.54790 | 52.06009 | 887 ft | 149 kts | 46° |
| 2026-04-14 14:51 | 55.55441 | 52.07315 | 766 ft | 132 kts | 41° |
| 2026-04-14 14:52 | 55.56024 | 52.08387 | 656 ft | 115 kts | 46° |
| 2026-04-14 14:52 | 55.56419 | 52.09154 | 648 ft | 53 kts | 49° |
| 2026-04-14 14:52 | 55.56531 | 52.09361 | 647 ft | 0 kts | 45° |
| 2026-04-14 15:04 | 55.56531 | 52.09362 | 647 ft | 0 kts | 45° |
| 2026-04-14 15:07 | 55.56545 | 52.09385 | 649 ft | 7 kts | 45° |
| 2026-04-14 15:07 | 55.56580 | 52.09451 | 646 ft | 7 kts | 50° |
| 2026-04-14 15:07 | 55.56611 | 52.09519 | 647 ft | 7 kts | 51° |
| 2026-04-14 15:07 | 55.56642 | 52.09585 | 648 ft | 7 kts | 50° |
| 2026-04-14 15:08 | 55.56673 | 52.09649 | 648 ft | 7 kts | 49° |
| 2026-04-14 15:08 | 55.56703 | 52.09710 | 648 ft | 7 kts | 49° |
| 2026-04-14 15:08 | 55.56735 | 52.09770 | 650 ft | 7 kts | 43° |
| 2026-04-14 15:08 | 55.56768 | 52.09824 | 648 ft | 6 kts | 43° |
| 2026-04-14 15:09 | 55.56780 | 52.09893 | 649 ft | 6 kts | 114° |
| 2026-04-14 15:09 | 55.56747 | 52.09949 | 648 ft | 7 kts | 138° |
| 2026-04-14 15:09 | 55.56710 | 52.10007 | 647 ft | 7 kts | 137° |
| 2026-04-14 15:09 | 55.56675 | 52.10066 | 647 ft | 7 kts | 136° |
| 2026-04-14 15:10 | 55.56658 | 52.10141 | 647 ft | 7 kts | 90° |
| 2026-04-14 15:10 | 55.56689 | 52.10203 | 647 ft | 7 kts | 39° |
| 2026-04-14 15:10 | 55.56726 | 52.10255 | 647 ft | 7 kts | 39° |
| 2026-04-14 15:10 | 55.56719 | 52.10321 | 647 ft | 7 kts | 150° |
| 2026-04-14 15:11 | 55.56708 | 52.10334 | 647 ft | 0 kts | 145° |
| 2026-04-14 15:13 | 55.56611 | 52.10207 | 649 ft | 0 kts | 136° |